sensor_id;sensor_type;location;lat;lon;timestamp;temperature;humidity
16929;DHT22;8581;47.334;11.190;2022-11-18T00:00:04;1.70;99.90
16929;DHT22;8581;47.334;11.190;2022-11-18T00:02:36;1.70;99.90
16929;DHT22;8581;47.334;11.190;2022-11-18T00:05:07;1.90;99.90
16929;DHT22;8581;47.334;11.190;2022-11-18T00:07:39;2.00;99.90
16929;DHT22;8581;47.334;11.190;2022-11-18T00:10:10;1.90;99.90
16929;DHT22;8581;47.334;11.190;2022-11-18T00:12:42;2.00;99.90
16929;DHT22;8581;47.334;11.190;2022-11-18T00:15:19;2.00;99.90
16929;DHT22;8581;47.334;11.190;2022-11-18T00:17:51;2.00;99.90
16929;DHT22;8581;47.334;11.190;2022-11-18T00:20:22;2.20;99.90
16929;DHT22;8581;47.334;11.190;2022-11-18T00:22:54;2.10;99.90
16929;DHT22;8581;47.334;11.190;2022-11-18T00:25:26;2.10;99.90
16929;DHT22;8581;47.334;11.190;2022-11-18T00:27:57;2.20;99.90
16929;DHT22;8581;47.334;11.190;2022-11-18T00:30:29;2.10;99.90
16929;DHT22;8581;47.334;11.190;2022-11-18T00:33:00;2.20;99.90
16929;DHT22;8581;47.334;11.190;2022-11-18T00:35:32;2.30;99.90
16929;DHT22;8581;47.334;11.190;2022-11-18T00:38:03;2.30;99.90
16929;DHT22;8581;47.334;11.190;2022-11-18T00:40:35;2.30;99.90
16929;DHT22;8581;47.334;11.190;2022-11-18T00:43:07;2.20;99.90
16929;DHT22;8581;47.334;11.190;2022-11-18T00:45:38;2.40;99.90
16929;DHT22;8581;47.334;11.190;2022-11-18T00:48:10;2.20;99.90
16929;DHT22;8581;47.334;11.190;2022-11-18T00:50:41;2.00;99.90
16929;DHT22;8581;47.334;11.190;2022-11-18T00:53:13;2.00;99.90
16929;DHT22;8581;47.334;11.190;2022-11-18T00:55:45;2.00;99.90
16929;DHT22;8581;47.334;11.190;2022-11-18T00:58:17;1.90;99.90
16929;DHT22;8581;47.334;11.190;2022-11-18T01:00:49;1.90;99.90
16929;DHT22;8581;47.334;11.190;2022-11-18T01:03:20;1.70;99.90
16929;DHT22;8581;47.334;11.190;2022-11-18T01:05:52;1.60;99.90
16929;DHT22;8581;47.334;11.190;2022-11-18T01:08:23;1.60;99.90
16929;DHT22;8581;47.334;11.190;2022-11-18T01:10:55;1.60;99.90
16929;DHT22;8581;47.334;11.190;2022-11-18T01:13:27;1.60;99.90
16929;DHT22;8581;47.334;11.190;2022-11-18T01:15:58;1.60;99.90
16929;DHT22;8581;47.334;11.190;2022-11-18T01:18:30;1.60;99.90
16929;DHT22;8581;47.334;11.190;2022-11-18T01:21:02;1.40;99.90
16929;DHT22;8581;47.334;11.190;2022-11-18T01:23:33;1.40;99.90
16929;DHT22;8581;47.334;11.190;2022-11-18T01:26:06;1.40;99.90
16929;DHT22;8581;47.334;11.190;2022-11-18T01:28:36;1.30;99.90
16929;DHT22;8581;47.334;11.190;2022-11-18T01:31:09;1.30;99.90
16929;DHT22;8581;47.334;11.190;2022-11-18T01:33:40;1.30;99.90
16929;DHT22;8581;47.334;11.190;2022-11-18T01:36:15;1.40;99.90
16929;DHT22;8581;47.334;11.190;2022-11-18T01:38:46;1.40;99.90
16929;DHT22;8581;47.334;11.190;2022-11-18T01:41:18;1.50;99.90
16929;DHT22;8581;47.334;11.190;2022-11-18T01:43:52;1.40;99.90
16929;DHT22;8581;47.334;11.190;2022-11-18T01:46:23;1.40;99.90
16929;DHT22;8581;47.334;11.190;2022-11-18T01:48:58;1.70;99.90
16929;DHT22;8581;47.334;11.190;2022-11-18T01:51:29;1.70;99.90
16929;DHT22;8581;47.334;11.190;2022-11-18T01:54:04;1.70;99.90
16929;DHT22;8581;47.334;11.190;2022-11-18T01:56:36;1.80;99.90
16929;DHT22;8581;47.334;11.190;2022-11-18T01:59:10;1.80;99.90
16929;DHT22;8581;47.334;11.190;2022-11-18T02:01:40;1.80;99.90
16929;DHT22;8581;47.334;11.190;2022-11-18T02:04:11;1.80;99.90
16929;DHT22;8581;47.334;11.190;2022-11-18T02:06:43;1.80;99.90
16929;DHT22;8581;47.334;11.190;2022-11-18T02:09:15;1.70;99.90
16929;DHT22;8581;47.334;11.190;2022-11-18T02:11:46;1.70;99.90
16929;DHT22;8581;47.334;11.190;2022-11-18T02:14:23;1.70;99.90
16929;DHT22;8581;47.334;11.190;2022-11-18T02:17:15;1.70;99.90
16929;DHT22;8581;47.334;11.190;2022-11-18T02:20:09;1.70;99.90
16929;DHT22;8581;47.334;11.190;2022-11-18T02:22:45;1.80;99.90
16929;DHT22;8581;47.334;11.190;2022-11-18T02:28:34;1.60;99.90
16929;DHT22;8581;47.334;11.190;2022-11-18T02:31:10;1.70;99.90
16929;DHT22;8581;47.334;11.190;2022-11-18T02:33:48;1.80;99.90
16929;DHT22;8581;47.334;11.190;2022-11-18T02:36:27;2.00;99.90
16929;DHT22;8581;47.334;11.190;2022-11-18T02:38:59;2.10;99.90
16929;DHT22;8581;47.334;11.190;2022-11-18T02:41:30;2.00;99.90
16929;DHT22;8581;47.334;11.190;2022-11-18T02:44:08;2.00;99.90
16929;DHT22;8581;47.334;11.190;2022-11-18T02:46:38;2.10;99.90
16929;DHT22;8581;47.334;11.190;2022-11-18T02:49:11;2.20;99.90
16929;DHT22;8581;47.334;11.190;2022-11-18T02:51:41;2.10;99.90
16929;DHT22;8581;47.334;11.190;2022-11-18T02:54:12;2.20;99.90
16929;DHT22;8581;47.334;11.190;2022-11-18T02:56:44;2.40;99.90
16929;DHT22;8581;47.334;11.190;2022-11-18T02:59:17;2.30;99.90
16929;DHT22;8581;47.334;11.190;2022-11-18T03:01:48;2.30;99.90
16929;DHT22;8581;47.334;11.190;2022-11-18T03:04:19;2.30;99.90
16929;DHT22;8581;47.334;11.190;2022-11-18T03:07:01;2.50;99.90
16929;DHT22;8581;47.334;11.190;2022-11-18T03:09:31;2.60;99.90
16929;DHT22;8581;47.334;11.190;2022-11-18T03:12:15;2.60;99.90
16929;DHT22;8581;47.334;11.190;2022-11-18T03:15:00;2.60;99.90
16929;DHT22;8581;47.334;11.190;2022-11-18T03:17:46;2.70;99.90
16929;DHT22;8581;47.334;11.190;2022-11-18T03:20:18;2.80;99.90
16929;DHT22;8581;47.334;11.190;2022-11-18T03:28:29;2.60;99.90
16929;DHT22;8581;47.334;11.190;2022-11-18T03:31:05;2.70;99.90
16929;DHT22;8581;47.334;11.190;2022-11-18T03:33:36;2.60;99.90
16929;DHT22;8581;47.334;11.190;2022-11-18T03:36:06;2.60;99.90
16929;DHT22;8581;47.334;11.190;2022-11-18T03:38:41;2.70;99.90
16929;DHT22;8581;47.334;11.190;2022-11-18T03:41:11;2.70;99.90
16929;DHT22;8581;47.334;11.190;2022-11-18T03:43:44;2.80;99.90
16929;DHT22;8581;47.334;11.190;2022-11-18T03:46:33;3.10;99.90
16929;DHT22;8581;47.334;11.190;2022-11-18T03:49:02;3.10;99.90
16929;DHT22;8581;47.334;11.190;2022-11-18T03:51:36;3.10;99.90
16929;DHT22;8581;47.334;11.190;2022-11-18T03:54:12;3.00;99.90
16929;DHT22;8581;47.334;11.190;2022-11-18T03:56:45;3.10;99.90
16929;DHT22;8581;47.334;11.190;2022-11-18T03:59:16;3.10;99.90
16929;DHT22;8581;47.334;11.190;2022-11-18T04:01:55;3.20;99.90
16929;DHT22;8581;47.334;11.190;2022-11-18T04:04:28;3.20;99.90
16929;DHT22;8581;47.334;11.190;2022-11-18T04:09:54;3.50;99.90
16929;DHT22;8581;47.334;11.190;2022-11-18T04:12:24;3.60;99.90
16929;DHT22;8581;47.334;11.190;2022-11-18T04:14:56;3.30;99.90
16929;DHT22;8581;47.334;11.190;2022-11-18T04:17:27;3.40;99.90
16929;DHT22;8581;47.334;11.190;2022-11-18T04:19:59;3.60;99.90
16929;DHT22;8581;47.334;11.190;2022-11-18T04:22:30;3.70;99.90
16929;DHT22;8581;47.334;11.190;2022-11-18T04:25:02;3.80;99.90
16929;DHT22;8581;47.334;11.190;2022-11-18T04:27:34;3.70;99.90
16929;DHT22;8581;47.334;11.190;2022-11-18T04:30:06;3.70;99.90
16929;DHT22;8581;47.334;11.190;2022-11-18T04:32:38;3.70;99.90
16929;DHT22;8581;47.334;11.190;2022-11-18T04:35:10;3.70;99.90
16929;DHT22;8581;47.334;11.190;2022-11-18T04:37:41;3.70;99.90
16929;DHT22;8581;47.334;11.190;2022-11-18T04:40:13;3.60;99.90
16929;DHT22;8581;47.334;11.190;2022-11-18T04:42:45;3.50;99.90
16929;DHT22;8581;47.334;11.190;2022-11-18T04:45:16;3.70;99.90
16929;DHT22;8581;47.334;11.190;2022-11-18T04:47:48;3.90;99.90
16929;DHT22;8581;47.334;11.190;2022-11-18T04:50:19;3.80;99.90
16929;DHT22;8581;47.334;11.190;2022-11-18T04:52:51;3.70;99.90
16929;DHT22;8581;47.334;11.190;2022-11-18T04:55:23;3.60;99.90
16929;DHT22;8581;47.334;11.190;2022-11-18T04:57:54;3.80;99.90
16929;DHT22;8581;47.334;11.190;2022-11-18T05:00:26;3.90;99.90
16929;DHT22;8581;47.334;11.190;2022-11-18T05:02:57;3.90;99.90
16929;DHT22;8581;47.334;11.190;2022-11-18T05:05:29;3.80;99.90
16929;DHT22;8581;47.334;11.190;2022-11-18T05:08:01;3.90;99.90
16929;DHT22;8581;47.334;11.190;2022-11-18T05:10:32;3.90;99.90
16929;DHT22;8581;47.334;11.190;2022-11-18T05:13:04;3.80;99.90
16929;DHT22;8581;47.334;11.190;2022-11-18T05:15:35;4.00;99.90
16929;DHT22;8581;47.334;11.190;2022-11-18T05:18:09;3.80;99.90
16929;DHT22;8581;47.334;11.190;2022-11-18T05:20:38;3.80;99.90
16929;DHT22;8581;47.334;11.190;2022-11-18T05:23:10;3.70;99.90
16929;DHT22;8581;47.334;11.190;2022-11-18T05:25:42;3.80;99.90
16929;DHT22;8581;47.334;11.190;2022-11-18T05:28:13;3.90;99.90
16929;DHT22;8581;47.334;11.190;2022-11-18T05:30:45;3.70;99.90
16929;DHT22;8581;47.334;11.190;2022-11-18T05:33:16;3.50;99.90
16929;DHT22;8581;47.334;11.190;2022-11-18T05:35:48;3.50;99.90
16929;DHT22;8581;47.334;11.190;2022-11-18T05:38:20;3.50;99.90
16929;DHT22;8581;47.334;11.190;2022-11-18T05:40:51;3.60;99.90
16929;DHT22;8581;47.334;11.190;2022-11-18T05:43:23;3.60;99.90
16929;DHT22;8581;47.334;11.190;2022-11-18T05:45:54;3.70;99.90
16929;DHT22;8581;47.334;11.190;2022-11-18T05:48:26;3.50;99.90
16929;DHT22;8581;47.334;11.190;2022-11-18T05:50:58;3.50;99.90
16929;DHT22;8581;47.334;11.190;2022-11-18T05:53:29;3.60;99.90
16929;DHT22;8581;47.334;11.190;2022-11-18T05:56:06;3.60;99.90
16929;DHT22;8581;47.334;11.190;2022-11-18T05:58:36;3.60;99.90
16929;DHT22;8581;47.334;11.190;2022-11-18T06:01:07;3.60;99.90
16929;DHT22;8581;47.334;11.190;2022-11-18T06:03:39;3.70;99.90
16929;DHT22;8581;47.334;11.190;2022-11-18T06:06:11;3.80;99.90
16929;DHT22;8581;47.334;11.190;2022-11-18T06:08:44;3.80;99.90
16929;DHT22;8581;47.334;11.190;2022-11-18T06:11:15;3.80;99.90
16929;DHT22;8581;47.334;11.190;2022-11-18T06:13:51;3.60;99.90
16929;DHT22;8581;47.334;11.190;2022-11-18T06:16:21;3.70;99.90
16929;DHT22;8581;47.334;11.190;2022-11-18T06:18:52;3.80;99.90
16929;DHT22;8581;47.334;11.190;2022-11-18T06:21:24;3.90;99.90
16929;DHT22;8581;47.334;11.190;2022-11-18T06:23:55;3.70;99.90
16929;DHT22;8581;47.334;11.190;2022-11-18T06:26:27;3.80;99.90
16929;DHT22;8581;47.334;11.190;2022-11-18T06:28:59;3.80;99.90
16929;DHT22;8581;47.334;11.190;2022-11-18T06:31:30;3.80;99.90
16929;DHT22;8581;47.334;11.190;2022-11-18T06:34:02;3.60;99.90
16929;DHT22;8581;47.334;11.190;2022-11-18T06:36:33;3.60;99.90
16929;DHT22;8581;47.334;11.190;2022-11-18T06:39:05;3.50;99.90
16929;DHT22;8581;47.334;11.190;2022-11-18T06:41:37;3.60;99.90
16929;DHT22;8581;47.334;11.190;2022-11-18T06:44:10;3.70;99.90
16929;DHT22;8581;47.334;11.190;2022-11-18T06:46:40;3.80;99.90
16929;DHT22;8581;47.334;11.190;2022-11-18T06:49:17;3.90;99.90
16929;DHT22;8581;47.334;11.190;2022-11-18T06:51:49;3.80;99.90
16929;DHT22;8581;47.334;11.190;2022-11-18T06:54:20;3.90;99.90
16929;DHT22;8581;47.334;11.190;2022-11-18T06:56:52;3.80;99.90
16929;DHT22;8581;47.334;11.190;2022-11-18T06:59:24;3.60;99.90
16929;DHT22;8581;47.334;11.190;2022-11-18T07:01:55;3.60;99.90
16929;DHT22;8581;47.334;11.190;2022-11-18T07:04:27;3.70;99.90
16929;DHT22;8581;47.334;11.190;2022-11-18T07:06:58;3.80;99.90
16929;DHT22;8581;47.334;11.190;2022-11-18T07:09:30;3.90;99.90
16929;DHT22;8581;47.334;11.190;2022-11-18T07:12:02;3.90;99.90
16929;DHT22;8581;47.334;11.190;2022-11-18T07:14:33;3.80;99.90
16929;DHT22;8581;47.334;11.190;2022-11-18T07:17:05;3.80;99.90
16929;DHT22;8581;47.334;11.190;2022-11-18T07:19:37;3.80;99.90
16929;DHT22;8581;47.334;11.190;2022-11-18T07:22:08;3.80;99.90
16929;DHT22;8581;47.334;11.190;2022-11-18T07:24:39;3.80;99.90
16929;DHT22;8581;47.334;11.190;2022-11-18T07:27:11;3.90;99.90
16929;DHT22;8581;47.334;11.190;2022-11-18T07:29:43;3.90;99.90
16929;DHT22;8581;47.334;11.190;2022-11-18T07:32:14;3.70;99.90
16929;DHT22;8581;47.334;11.190;2022-11-18T07:34:46;3.90;99.90
16929;DHT22;8581;47.334;11.190;2022-11-18T07:37:17;3.90;99.90
16929;DHT22;8581;47.334;11.190;2022-11-18T07:39:49;3.90;99.90
16929;DHT22;8581;47.334;11.190;2022-11-18T07:42:21;3.80;99.90
16929;DHT22;8581;47.334;11.190;2022-11-18T07:44:52;3.70;99.90
16929;DHT22;8581;47.334;11.190;2022-11-18T07:47:24;3.60;99.90
16929;DHT22;8581;47.334;11.190;2022-11-18T07:49:55;3.60;99.90
16929;DHT22;8581;47.334;11.190;2022-11-18T07:52:27;3.80;99.90
16929;DHT22;8581;47.334;11.190;2022-11-18T07:54:59;3.90;99.90
16929;DHT22;8581;47.334;11.190;2022-11-18T07:57:30;3.90;99.90
16929;DHT22;8581;47.334;11.190;2022-11-18T08:00:03;3.80;99.90
16929;DHT22;8581;47.334;11.190;2022-11-18T08:02:34;3.90;99.90
16929;DHT22;8581;47.334;11.190;2022-11-18T08:05:06;4.10;99.90
16929;DHT22;8581;47.334;11.190;2022-11-18T08:07:38;4.20;99.90
16929;DHT22;8581;47.334;11.190;2022-11-18T08:10:10;4.30;99.90
16929;DHT22;8581;47.334;11.190;2022-11-18T08:12:41;4.50;99.90
16929;DHT22;8581;47.334;11.190;2022-11-18T08:15:13;4.50;99.90
16929;DHT22;8581;47.334;11.190;2022-11-18T08:17:44;4.70;99.90
16929;DHT22;8581;47.334;11.190;2022-11-18T08:20:16;4.70;99.90
16929;DHT22;8581;47.334;11.190;2022-11-18T08:22:48;4.60;99.90
16929;DHT22;8581;47.334;11.190;2022-11-18T08:25:19;4.50;99.90
16929;DHT22;8581;47.334;11.190;2022-11-18T08:27:51;4.70;99.90
16929;DHT22;8581;47.334;11.190;2022-11-18T08:30:22;4.80;99.90
16929;DHT22;8581;47.334;11.190;2022-11-18T08:32:54;4.80;99.90
16929;DHT22;8581;47.334;11.190;2022-11-18T08:35:26;5.20;99.90
16929;DHT22;8581;47.334;11.190;2022-11-18T08:37:57;5.30;99.90
16929;DHT22;8581;47.334;11.190;2022-11-18T08:40:29;5.20;99.90
16929;DHT22;8581;47.334;11.190;2022-11-18T08:43:01;5.50;99.90
16929;DHT22;8581;47.334;11.190;2022-11-18T08:45:32;5.70;99.90
16929;DHT22;8581;47.334;11.190;2022-11-18T08:48:04;5.70;99.90
16929;DHT22;8581;47.334;11.190;2022-11-18T08:50:37;5.70;99.90
16929;DHT22;8581;47.334;11.190;2022-11-18T08:53:09;5.90;99.90
16929;DHT22;8581;47.334;11.190;2022-11-18T08:55:40;6.00;99.90
16929;DHT22;8581;47.334;11.190;2022-11-18T08:58:12;6.30;99.90
16929;DHT22;8581;47.334;11.190;2022-11-18T09:00:44;6.20;99.90
16929;DHT22;8581;47.334;11.190;2022-11-18T09:03:15;6.40;99.90
16929;DHT22;8581;47.334;11.190;2022-11-18T09:05:47;6.30;99.90
16929;DHT22;8581;47.334;11.190;2022-11-18T09:08:18;6.40;99.90
16929;DHT22;8581;47.334;11.190;2022-11-18T09:10:50;6.40;99.90
16929;DHT22;8581;47.334;11.190;2022-11-18T09:13:22;6.30;99.90
16929;DHT22;8581;47.334;11.190;2022-11-18T09:15:53;6.20;99.90
16929;DHT22;8581;47.334;11.190;2022-11-18T09:18:25;6.30;99.90
16929;DHT22;8581;47.334;11.190;2022-11-18T09:20:58;6.20;99.90
16929;DHT22;8581;47.334;11.190;2022-11-18T09:23:30;6.50;99.90
16929;DHT22;8581;47.334;11.190;2022-11-18T09:26:02;6.70;99.90
16929;DHT22;8581;47.334;11.190;2022-11-18T09:28:33;6.60;99.90
16929;DHT22;8581;47.334;11.190;2022-11-18T09:31:05;6.40;99.90
16929;DHT22;8581;47.334;11.190;2022-11-18T09:33:37;6.20;99.90
16929;DHT22;8581;47.334;11.190;2022-11-18T09:36:13;6.20;99.90
16929;DHT22;8581;47.334;11.190;2022-11-18T09:38:43;6.20;99.90
16929;DHT22;8581;47.334;11.190;2022-11-18T09:41:36;6.40;99.90
16929;DHT22;8581;47.334;11.190;2022-11-18T09:44:40;6.60;99.90
16929;DHT22;8581;47.334;11.190;2022-11-18T09:47:26;6.80;99.90
16929;DHT22;8581;47.334;11.190;2022-11-18T09:50:01;6.90;99.90
16929;DHT22;8581;47.334;11.190;2022-11-18T09:52:35;7.30;99.90
16929;DHT22;8581;47.334;11.190;2022-11-18T09:55:10;6.90;99.90
16929;DHT22;8581;47.334;11.190;2022-11-18T09:57:44;6.70;99.90
16929;DHT22;8581;47.334;11.190;2022-11-18T10:00:17;6.70;99.90
16929;DHT22;8581;47.334;11.190;2022-11-18T10:03:01;6.70;99.90
16929;DHT22;8581;47.334;11.190;2022-11-18T10:05:52;6.80;99.90
16929;DHT22;8581;47.334;11.190;2022-11-18T10:08:24;6.70;99.90
16929;DHT22;8581;47.334;11.190;2022-11-18T10:11:00;6.80;99.90
16929;DHT22;8581;47.334;11.190;2022-11-18T10:13:39;6.90;99.90
16929;DHT22;8581;47.334;11.190;2022-11-18T10:17:21;7.20;99.90
16929;DHT22;8581;47.334;11.190;2022-11-18T10:19:19;7.10;99.90
16929;DHT22;8581;47.334;11.190;2022-11-18T10:24:42;7.10;99.90
16929;DHT22;8581;47.334;11.190;2022-11-18T10:27:13;7.20;99.90
16929;DHT22;8581;47.334;11.190;2022-11-18T10:29:47;7.50;99.90
16929;DHT22;8581;47.334;11.190;2022-11-18T10:32:17;7.60;99.90
16929;DHT22;8581;47.334;11.190;2022-11-18T10:34:52;7.50;99.90
16929;DHT22;8581;47.334;11.190;2022-11-18T10:37:34;7.50;99.90
16929;DHT22;8581;47.334;11.190;2022-11-18T10:40:08;7.50;99.90
16929;DHT22;8581;47.334;11.190;2022-11-18T10:42:40;7.50;99.90
16929;DHT22;8581;47.334;11.190;2022-11-18T10:45:23;8.00;99.90
16929;DHT22;8581;47.334;11.190;2022-11-18T10:47:59;8.10;99.90
16929;DHT22;8581;47.334;11.190;2022-11-18T10:50:34;8.20;99.90
16929;DHT22;8581;47.334;11.190;2022-11-18T10:53:05;8.60;99.90
16929;DHT22;8581;47.334;11.190;2022-11-18T10:55:36;9.30;99.90
16929;DHT22;8581;47.334;11.190;2022-11-18T10:58:09;10.50;99.90
16929;DHT22;8581;47.334;11.190;2022-11-18T11:00:42;10.60;99.90
16929;DHT22;8581;47.334;11.190;2022-11-18T11:03:21;9.80;99.90
16929;DHT22;8581;47.334;11.190;2022-11-18T11:08:35;9.10;99.90
16929;DHT22;8581;47.334;11.190;2022-11-18T11:11:15;8.60;99.90
16929;DHT22;8581;47.334;11.190;2022-11-18T11:13:38;8.40;99.90
16929;DHT22;8581;47.334;11.190;2022-11-18T11:16:10;8.80;99.90
16929;DHT22;8581;47.334;11.190;2022-11-18T11:18:42;9.60;99.90
16929;DHT22;8581;47.334;11.190;2022-11-18T11:21:15;10.00;99.90
16929;DHT22;8581;47.334;11.190;2022-11-18T11:23:46;11.00;99.90
16929;DHT22;8581;47.334;11.190;2022-11-18T11:26:21;11.20;99.90
16929;DHT22;8581;47.334;11.190;2022-11-18T11:29:01;11.20;99.90
16929;DHT22;8581;47.334;11.190;2022-11-18T11:32:10;11.70;99.90
16929;DHT22;8581;47.334;11.190;2022-11-18T11:34:41;12.00;99.90
16929;DHT22;8581;47.334;11.190;2022-11-18T11:37:49;12.00;99.90
16929;DHT22;8581;47.334;11.190;2022-11-18T11:40:09;12.00;99.90
16929;DHT22;8581;47.334;11.190;2022-11-18T11:42:44;11.70;99.90
16929;DHT22;8581;47.334;11.190;2022-11-18T11:45:23;11.00;99.90
16929;DHT22;8581;47.334;11.190;2022-11-18T11:48:09;10.50;99.90
16929;DHT22;8581;47.334;11.190;2022-11-18T11:50:42;10.60;99.90
16929;DHT22;8581;47.334;11.190;2022-11-18T11:53:19;11.40;99.90
16929;DHT22;8581;47.334;11.190;2022-11-18T11:58:52;9.60;99.90
16929;DHT22;8581;47.334;11.190;2022-11-18T12:01:24;8.70;99.90
16929;DHT22;8581;47.334;11.190;2022-11-18T12:03:58;8.00;99.90
16929;DHT22;8581;47.334;11.190;2022-11-18T12:06:26;7.80;99.90
16929;DHT22;8581;47.334;11.190;2022-11-18T12:09:06;7.90;99.90
16929;DHT22;8581;47.334;11.190;2022-11-18T12:11:41;8.20;99.90
16929;DHT22;8581;47.334;11.190;2022-11-18T12:17:18;9.20;99.90
16929;DHT22;8581;47.334;11.190;2022-11-18T12:19:48;9.30;99.90
16929;DHT22;8581;47.334;11.190;2022-11-18T12:22:20;9.10;99.90
16929;DHT22;8581;47.334;11.190;2022-11-18T12:24:52;8.80;99.90
16929;DHT22;8581;47.334;11.190;2022-11-18T12:30:26;8.70;99.90
16929;DHT22;8581;47.334;11.190;2022-11-18T12:32:58;8.40;99.90
16929;DHT22;8581;47.334;11.190;2022-11-18T12:35:29;8.40;99.90
16929;DHT22;8581;47.334;11.190;2022-11-18T12:38:01;8.00;99.90
16929;DHT22;8581;47.334;11.190;2022-11-18T12:40:40;8.20;99.90
16929;DHT22;8581;47.334;11.190;2022-11-18T12:46:00;7.50;99.90
16929;DHT22;8581;47.334;11.190;2022-11-18T12:48:33;7.60;99.90
16929;DHT22;8581;47.334;11.190;2022-11-18T12:51:38;7.80;99.90
16929;DHT22;8581;47.334;11.190;2022-11-18T12:54:20;7.90;99.90
16929;DHT22;8581;47.334;11.190;2022-11-18T12:56:47;7.80;99.90
16929;DHT22;8581;47.334;11.190;2022-11-18T12:59:25;8.10;99.90
16929;DHT22;8581;47.334;11.190;2022-11-18T13:02:04;8.00;99.90
16929;DHT22;8581;47.334;11.190;2022-11-18T13:04:35;7.80;99.90
16929;DHT22;8581;47.334;11.190;2022-11-18T13:07:09;8.00;99.90
16929;DHT22;8581;47.334;11.190;2022-11-18T13:09:38;7.80;99.90
16929;DHT22;8581;47.334;11.190;2022-11-18T13:12:13;7.60;99.90
16929;DHT22;8581;47.334;11.190;2022-11-18T13:14:41;7.70;99.90
16929;DHT22;8581;47.334;11.190;2022-11-18T13:17:27;7.00;99.90
16929;DHT22;8581;47.334;11.190;2022-11-18T13:20:02;6.70;99.90
16929;DHT22;8581;47.334;11.190;2022-11-18T13:22:34;6.60;99.90
16929;DHT22;8581;47.334;11.190;2022-11-18T13:25:21;6.60;99.90
16929;DHT22;8581;47.334;11.190;2022-11-18T13:27:51;6.80;99.90
16929;DHT22;8581;47.334;11.190;2022-11-18T13:30:21;6.80;99.90
16929;DHT22;8581;47.334;11.190;2022-11-18T13:32:53;7.00;99.90
16929;DHT22;8581;47.334;11.190;2022-11-18T13:35:29;6.90;99.90
16929;DHT22;8581;47.334;11.190;2022-11-18T13:38:02;7.10;99.90
16929;DHT22;8581;47.334;11.190;2022-11-18T13:40:42;7.20;99.90
16929;DHT22;8581;47.334;11.190;2022-11-18T13:43:11;7.10;99.90
16929;DHT22;8581;47.334;11.190;2022-11-18T13:45:42;7.00;99.90
16929;DHT22;8581;47.334;11.190;2022-11-18T13:48:14;7.00;99.90
16929;DHT22;8581;47.334;11.190;2022-11-18T13:50:47;7.20;99.90
16929;DHT22;8581;47.334;11.190;2022-11-18T13:53:25;6.70;99.90
16929;DHT22;8581;47.334;11.190;2022-11-18T13:55:51;6.80;99.90
16929;DHT22;8581;47.334;11.190;2022-11-18T13:58:28;7.00;99.90
16929;DHT22;8581;47.334;11.190;2022-11-18T14:00:56;7.10;99.90
16929;DHT22;8581;47.334;11.190;2022-11-18T14:03:46;7.20;99.90
16929;DHT22;8581;47.334;11.190;2022-11-18T14:06:06;7.20;99.90
16929;DHT22;8581;47.334;11.190;2022-11-18T14:08:38;7.20;99.90
16929;DHT22;8581;47.334;11.190;2022-11-18T14:11:09;7.20;99.90
16929;DHT22;8581;47.334;11.190;2022-11-18T14:13:47;6.70;99.90
16929;DHT22;8581;47.334;11.190;2022-11-18T14:16:34;6.50;99.90
16929;DHT22;8581;47.334;11.190;2022-11-18T14:19:04;6.00;99.90
16929;DHT22;8581;47.334;11.190;2022-11-18T14:21:36;6.40;99.90
16929;DHT22;8581;47.334;11.190;2022-11-18T14:24:12;6.40;99.90
16929;DHT22;8581;47.334;11.190;2022-11-18T14:26:40;6.40;99.90
16929;DHT22;8581;47.334;11.190;2022-11-18T14:29:14;6.30;99.90
16929;DHT22;8581;47.334;11.190;2022-11-18T14:32:01;6.30;99.90
16929;DHT22;8581;47.334;11.190;2022-11-18T14:34:20;6.30;99.90
16929;DHT22;8581;47.334;11.190;2022-11-18T14:36:52;6.20;99.90
16929;DHT22;8581;47.334;11.190;2022-11-18T14:39:24;6.30;99.90
16929;DHT22;8581;47.334;11.190;2022-11-18T14:41:55;6.20;99.90
16929;DHT22;8581;47.334;11.190;2022-11-18T14:44:26;6.50;99.90
16929;DHT22;8581;47.334;11.190;2022-11-18T14:46:59;6.30;99.90
16929;DHT22;8581;47.334;11.190;2022-11-18T14:49:30;6.10;99.90
16929;DHT22;8581;47.334;11.190;2022-11-18T14:52:01;6.40;99.90
16929;DHT22;8581;47.334;11.190;2022-11-18T14:54:33;6.30;99.90
16929;DHT22;8581;47.334;11.190;2022-11-18T14:57:04;6.10;99.90
16929;DHT22;8581;47.334;11.190;2022-11-18T14:59:36;6.10;99.90
16929;DHT22;8581;47.334;11.190;2022-11-18T15:02:15;6.20;99.90
16929;DHT22;8581;47.334;11.190;2022-11-18T15:04:46;6.10;99.90
16929;DHT22;8581;47.334;11.190;2022-11-18T15:07:18;6.00;99.90
16929;DHT22;8581;47.334;11.190;2022-11-18T15:09:49;6.00;99.90
16929;DHT22;8581;47.334;11.190;2022-11-18T15:12:21;5.70;99.90
16929;DHT22;8581;47.334;11.190;2022-11-18T15:14:52;5.70;99.90
16929;DHT22;8581;47.334;11.190;2022-11-18T15:17:24;5.40;99.90
16929;DHT22;8581;47.334;11.190;2022-11-18T15:19:55;5.00;99.90
16929;DHT22;8581;47.334;11.190;2022-11-18T15:22:27;5.00;99.90
16929;DHT22;8581;47.334;11.190;2022-11-18T15:24:59;5.00;99.90
16929;DHT22;8581;47.334;11.190;2022-11-18T15:27:33;5.10;99.90
16929;DHT22;8581;47.334;11.190;2022-11-18T15:30:06;5.10;99.90
16929;DHT22;8581;47.334;11.190;2022-11-18T15:32:38;5.20;99.90
16929;DHT22;8581;47.334;11.190;2022-11-18T15:35:11;5.10;99.90
16929;DHT22;8581;47.334;11.190;2022-11-18T15:37:41;4.90;99.90
16929;DHT22;8581;47.334;11.190;2022-11-18T15:40:13;5.00;99.90
16929;DHT22;8581;47.334;11.190;2022-11-18T15:42:44;5.00;99.90
16929;DHT22;8581;47.334;11.190;2022-11-18T15:45:16;5.00;99.90
16929;DHT22;8581;47.334;11.190;2022-11-18T15:47:50;5.10;99.90
16929;DHT22;8581;47.334;11.190;2022-11-18T15:50:19;4.90;99.90
16929;DHT22;8581;47.334;11.190;2022-11-18T15:52:51;4.70;99.90
16929;DHT22;8581;47.334;11.190;2022-11-18T15:55:23;4.80;99.90
16929;DHT22;8581;47.334;11.190;2022-11-18T15:57:54;4.80;99.90
16929;DHT22;8581;47.334;11.190;2022-11-18T16:00:26;4.80;99.90
16929;DHT22;8581;47.334;11.190;2022-11-18T16:02:57;5.00;99.90
16929;DHT22;8581;47.334;11.190;2022-11-18T16:05:29;4.90;99.90
16929;DHT22;8581;47.334;11.190;2022-11-18T16:08:01;4.80;99.90
16929;DHT22;8581;47.334;11.190;2022-11-18T16:10:32;4.80;99.90
16929;DHT22;8581;47.334;11.190;2022-11-18T16:13:09;4.80;99.90
16929;DHT22;8581;47.334;11.190;2022-11-18T16:15:41;4.70;99.90
16929;DHT22;8581;47.334;11.190;2022-11-18T16:18:15;4.50;99.90
16929;DHT22;8581;47.334;11.190;2022-11-18T16:20:45;4.30;99.90
16929;DHT22;8581;47.334;11.190;2022-11-18T16:23:17;4.40;99.90
16929;DHT22;8581;47.334;11.190;2022-11-18T16:25:48;4.60;99.90
16929;DHT22;8581;47.334;11.190;2022-11-18T16:28:20;4.50;99.90
16929;DHT22;8581;47.334;11.190;2022-11-18T16:30:51;4.30;99.90
16929;DHT22;8581;47.334;11.190;2022-11-18T16:33:29;4.50;99.90
16929;DHT22;8581;47.334;11.190;2022-11-18T16:36:00;4.50;99.90
16929;DHT22;8581;47.334;11.190;2022-11-18T16:38:32;4.40;99.90
16929;DHT22;8581;47.334;11.190;2022-11-18T16:41:04;4.50;99.90
16929;DHT22;8581;47.334;11.190;2022-11-18T16:43:35;4.50;99.90
16929;DHT22;8581;47.334;11.190;2022-11-18T16:46:07;4.40;99.90
16929;DHT22;8581;47.334;11.190;2022-11-18T16:48:39;4.40;99.90
16929;DHT22;8581;47.334;11.190;2022-11-18T16:51:19;4.40;99.90